Time;durP1;ratioP1;P1;durP2;ratioP2;P2;SDS_P1;SDS_P2;PMS_P1;PMS_P2;Temp;Humidity;BMP_temperature;BMP_pressure;BME280_temperature;BME280_humidity;BME280_pressure;Samples;Min_cycle;Max_cycle;Signal;HPM_P1;HPM_P2
2023/03/15 00:01:26;;;;;;;1.53;0.80;;;;;;;0.96;100.00;101113.81;4915202;29;20028;-88
2023/03/15 00:04:04;;;;;;;0.80;0.60;;;;;;;0.96;100.00;101104.06;4904572;29;20523;-88
2023/03/15 00:06:33;;;;;;;5.25;0.73;;;;;;;0.98;100.00;101109.97;4915217;29;20028;-88
2023/03/15 00:09:02;;;;;;;2.55;0.68;;;;;;;0.97;100.00;101108.31;4914366;29;20031;-88
2023/03/15 00:11:29;;;;;;;2.58;1.00;;;;;;;0.98;100.00;101117.88;4897714;29;20090;-88
2023/03/15 00:13:58;;;;;;;2.90;0.85;;;;;;;1.01;100.00;101121.97;4895901;29;20501;-88
2023/03/15 00:16:26;;;;;;;2.95;0.90;;;;;;;0.98;100.00;101112.59;4896218;29;20536;-88
2023/03/15 00:18:52;;;;;;;1.70;0.70;;;;;;;1.04;100.00;101105.75;4896027;29;20020;-88
2023/03/15 00:21:17;;;;;;;1.87;0.90;;;;;;;1.05;100.00;101097.66;4899546;29;20047;-88
2023/03/15 00:23:43;;;;;;;1.00;0.57;;;;;;;1.04;100.00;101097.84;4906391;29;20052;-87
2023/03/15 00:26:08;;;;;;;2.93;0.60;;;;;;;1.00;100.00;101101.88;4917626;29;20096;-88
2023/03/15 00:28:33;;;;;;;2.13;0.80;;;;;;;1.02;100.00;101116.50;4916966;29;20041;-89
2023/03/15 00:31:05;;;;;;;2.10;0.80;;;;;;;1.05;100.00;101112.66;4918035;29;20247;-88
2023/03/15 00:33:33;;;;;;;1.63;0.75;;;;;;;1.05;100.00;101108.22;4915285;29;20062;-88
2023/03/15 00:36:02;;;;;;;5.43;0.90;;;;;;;1.11;100.00;101111.94;4897905;29;20397;-88
2023/03/15 00:38:32;;;;;;;3.97;1.05;;;;;;;1.10;100.00;101112.94;4915283;29;20036;-88
2023/03/15 00:41:02;;;;;;;4.20;1.10;;;;;;;1.08;100.00;101116.78;4915192;29;20024;-88
2023/03/15 00:43:27;;;;;;;2.63;1.10;;;;;;;1.08;100.00;101122.84;4915518;29;20272;-89
2023/03/15 00:45:53;;;;;;;3.75;1.30;;;;;;;1.09;100.00;101118.41;4915613;29;20031;-88
2023/03/15 00:48:18;;;;;;;1.97;1.07;;;;;;;1.11;100.00;101119.00;4915291;29;20579;-88
2023/03/15 00:50:43;;;;;;;7.40;1.10;;;;;;;1.17;100.00;101118.28;4919567;29;20032;-88
2023/03/15 00:53:10;;;;;;;2.33;1.37;;;;;;;1.13;100.00;101103.81;4921229;29;20036;-88
2023/03/15 00:55:35;;;;;;;4.45;1.33;;;;;;;1.11;100.00;101111.09;4924604;29;20040;-88
2023/03/15 00:58:01;;;;;;;3.40;1.50;;;;;;;1.08;100.00;101109.66;4918710;29;20024;-88
2023/03/15 01:00:26;;;;;;;3.37;1.30;;;;;;;1.12;100.00;101113.56;4939673;29;20032;-88
2023/03/15 01:02:53;;;;;;;7.15;1.40;;;;;;;1.16;100.00;101111.34;4939258;29;20036;-88
2023/03/15 01:05:18;;;;;;;5.47;1.57;;;;;;;1.21;100.00;101112.41;4939655;29;20074;-88
2023/03/15 01:07:44;;;;;;;4.67;1.73;;;;;;;1.24;100.00;101110.41;4932279;29;20281;-87
2023/03/15 01:10:11;;;;;;;6.00;1.47;;;;;;;1.25;100.00;101107.59;4923636;29;20017;-87
2023/03/15 01:12:37;;;;;;;5.47;1.35;;;;;;;1.30;100.00;101114.94;4921685;29;20028;-89
2023/03/15 01:15:06;;;;;;;4.15;1.48;;;;;;;1.27;100.00;101097.66;4920272;29;20103;-88
2023/03/15 01:17:31;;;;;;;5.15;1.70;;;;;;;1.31;100.00;101113.94;4920842;29;20495;-87
2023/03/15 01:19:58;;;;;;;7.53;1.50;;;;;;;1.32;100.00;101118.22;4918249;29;20028;-88
2023/03/15 01:22:23;;;;;;;8.32;2.15;;;;;;;1.35;100.00;101115.22;4917940;29;20503;-89
2023/03/15 01:24:48;;;;;;;6.17;2.10;;;;;;;1.31;100.00;101111.31;4916850;29;20068;-88
2023/03/15 01:27:14;;;;;;;7.33;2.70;;;;;;;1.35;100.00;101131.84;4916618;29;20029;-88
2023/03/15 01:29:39;;;;;;;12.48;3.55;;;;;;;1.35;100.00;101139.78;4912591;29;20555;-88
2023/03/15 01:32:08;;;;;;;11.73;4.53;;;;;;;1.35;100.00;101141.63;4898782;29;20029;-88
2023/03/15 01:34:34;;;;;;;19.63;5.85;;;;;;;1.43;100.00;101145.97;4899001;29;20029;-89
2023/03/15 01:39:25;;;;;;;15.30;6.70;;;;;;;1.34;100.00;101124.94;4921324;23;20415;-88
2023/03/15 01:41:53;;;;;;;13.93;7.20;;;;;;;1.21;100.00;101108.97;4917333;29;20036;-87
2023/03/15 01:44:48;;;;;;;16.05;8.43;;;;;;;1.24;100.00;101127.09;4916682;29;20032;-88
2023/03/15 01:47:14;;;;;;;20.88;8.88;;;;;;;1.36;100.00;101149.34;4916512;29;20494;-88
2023/03/15 01:49:39;;;;;;;17.83;8.17;;;;;;;1.30;100.00;101134.25;4917106;29;20064;-88
2023/03/15 01:52:11;;;;;;;15.57;9.03;;;;;;;1.33;100.00;101141.78;4899590;29;20028;-89
2023/03/15 01:55:09;;;;;;;21.75;9.27;;;;;;;1.31;100.00;101141.16;4900531;29;20027;-89
2023/03/15 01:57:40;;;;;;;17.33;10.82;;;;;;;1.36;100.00;101151.97;4889017;29;20040;-89
2023/03/15 02:00:11;;;;;;;18.08;10.15;;;;;;;1.34;100.00;101156.63;4915006;29;20111;-88
2023/03/15 02:02:45;;;;;;;22.02;10.10;;;;;;;1.30;100.00;101152.72;4917168;29;20028;-88
2023/03/15 02:05:14;;;;;;;18.73;11.03;;;;;;;1.28;100.00;101157.38;4916734;29;20535;-89
2023/03/15 02:07:57;;;;;;;21.03;11.43;;;;;;;1.21;100.00;101153.84;4938293;23;20308;-88
2023/03/15 02:10:43;;;;;;;20.30;10.82;;;;;;;1.10;100.00;101127.94;4916602;29;20042;-88
2023/03/15 02:16:15;;;;;;;19.38;11.68;;;;;;;1.19;100.00;101159.31;4875783;29;20044;-88
2023/03/15 02:18:53;;;;;;;21.25;11.32;;;;;;;1.31;100.00;101177.31;4915352;29;20047;-88
2023/03/15 02:21:50;;;;;;;23.48;11.93;;;;;;;1.30;100.00;101175.69;4917527;29;20028;-89
2023/03/15 02:24:47;;;;;;;19.55;12.57;;;;;;;1.30;100.00;101194.16;4917222;29;20119;-88
2023/03/15 02:27:28;;;;;;;27.57;14.13;;;;;;;1.16;100.00;101175.56;4878486;29;20036;-88
2023/03/15 02:29:53;;;;;;;20.00;12.80;;;;;;;1.14;100.00;101177.56;4916402;29;20031;-88
2023/03/15 02:32:18;;;;;;;21.40;12.63;;;;;;;1.17;100.00;101168.44;4916388;29;20032;-88
2023/03/15 02:34:44;;;;;;;26.80;13.32;;;;;;;1.25;100.00;101189.44;4915701;29;20083;-87
2023/03/15 02:37:09;;;;;;;23.13;12.90;;;;;;;1.21;100.00;101191.63;4940595;23;20015;-89
2023/03/15 02:39:37;;;;;;;23.57;12.53;;;;;;;1.13;100.00;101183.00;4935192;29;20028;-88
2023/03/15 02:42:03;;;;;;;20.20;12.98;;;;;;;1.23;100.00;101191.47;4934548;29;20040;-88
2023/03/15 02:44:34;;;;;;;23.00;13.13;;;;;;;1.26;100.00;101191.09;4937492;29;20056;-88
2023/03/15 02:47:07;;;;;;;22.42;13.68;;;;;;;1.26;100.00;101190.25;4914708;29;20684;-88
2023/03/15 02:49:38;;;;;;;29.02;14.32;;;;;;;1.22;100.00;101197.75;4904224;29;20043;-88
2023/03/15 02:52:04;;;;;;;29.83;14.03;;;;;;;1.24;100.00;101203.66;4916560;29;20032;-88
2023/03/15 02:54:33;;;;;;;27.00;14.00;;;;;;;1.21;100.00;101196.91;4916054;29;20287;-88
2023/03/15 02:56:58;;;;;;;27.17;14.02;;;;;;;1.19;100.00;101200.75;4898952;29;20056;-88
2023/03/15 02:59:24;;;;;;;24.10;13.83;;;;;;;1.20;100.00;101211.09;4916115;29;20074;-88
2023/03/15 03:01:50;;;;;;;23.70;13.70;;;;;;;1.19;100.00;101206.84;4915052;29;20319;-88
2023/03/15 03:04:18;;;;;;;26.60;13.77;;;;;;;1.19;100.00;101206.03;4912264;29;20502;-88
2023/03/15 03:06:43;;;;;;;22.00;11.65;;;;;;;1.17;100.00;101210.66;4915975;29;20024;-88
2023/03/15 03:09:10;;;;;;;21.58;12.20;;;;;;;1.11;100.00;101214.03;4914647;29;20024;-88
2023/03/15 03:11:36;;;;;;;22.03;11.03;;;;;;;1.08;100.00;101217.06;4915768;29;20027;-88
2023/03/15 03:14:01;;;;;;;20.65;11.38;;;;;;;1.06;100.00;101233.09;4919598;29;20028;-89
2023/03/15 03:16:27;;;;;;;18.90;10.77;;;;;;;1.03;100.00;101238.72;4921889;29;20027;-88
2023/03/15 03:18:52;;;;;;;20.00;10.23;;;;;;;1.02;100.00;101247.63;4916965;29;20024;-88
2023/03/15 03:21:18;;;;;;;20.47;10.70;;;;;;;0.95;100.00;101246.75;4916233;29;20024;-87
2023/03/15 03:23:45;;;;;;;22.57;10.90;;;;;;;0.88;100.00;101255.41;4916915;29;20035;-87
2023/03/15 03:26:16;;;;;;;19.88;11.02;;;;;;;0.79;100.00;101247.75;4916957;29;20088;-88
2023/03/15 03:28:44;;;;;;;20.25;9.50;;;;;;;0.68;100.00;101257.78;4913781;29;20070;-88
2023/03/15 03:31:21;;;;;;;14.55;9.25;;;;;;;0.54;100.00;101262.03;4918111;29;20104;-88
2023/03/15 03:33:46;;;;;;;15.80;9.65;;;;;;;0.41;100.00;101273.19;4916326;29;20047;-88
2023/03/15 03:36:12;;;;;;;15.60;9.63;;;;;;;0.27;100.00;101271.34;4915260;29;20032;-88
2023/03/15 03:38:41;;;;;;;17.33;9.80;;;;;;;0.19;100.00;101274.03;4895470;29;20035;-88
2023/03/15 03:41:08;;;;;;;17.02;9.20;;;;;;;0.04;100.00;101271.38;4916496;29;20107;-88
2023/03/15 03:43:34;;;;;;;17.30;8.93;;;;;;;-0.08;100.00;101281.50;4926326;29;20020;-88
2023/03/15 03:45:59;;;;;;;15.13;9.30;;;;;;;-0.18;100.00;101289.63;4916008;29;20032;-88
2023/03/15 03:48:25;;;;;;;14.63;8.83;;;;;;;-0.25;100.00;101286.88;4913657;29;20103;-87
2023/03/15 03:50:50;;;;;;;18.20;9.45;;;;;;;-0.32;100.00;101288.56;4931611;29;20313;-88
2023/03/15 03:53:15;;;;;;;15.80;9.57;;;;;;;-0.41;100.00;101286.97;4923070;28;20040;-87
2023/03/15 03:55:41;;;;;;;18.57;9.43;;;;;;;-0.42;100.00;101293.25;4914294;29;20365;-87
2023/03/15 03:58:07;;;;;;;18.25;9.35;;;;;;;-0.50;100.00;101289.66;4914063;29;20038;-88
2023/03/15 04:00:33;;;;;;;17.05;9.23;;;;;;;-0.52;100.00;101299.53;4917468;29;20079;-87
2023/03/15 04:02:58;;;;;;;16.10;9.33;;;;;;;-0.58;100.00;101299.41;4920662;29;20498;-88
2023/03/15 04:05:23;;;;;;;15.53;9.27;;;;;;;-0.65;100.00;101294.00;4914280;29;20032;-88
2023/03/15 04:07:49;;;;;;;17.27;9.33;;;;;;;-0.71;100.00;101294.69;4912681;29;20062;-87
2023/03/15 04:10:15;;;;;;;18.15;9.68;;;;;;;-0.70;100.00;101306.84;4914671;29;20027;-87
2023/03/15 04:12:43;;;;;;;19.13;9.63;;;;;;;-0.76;100.00;101311.00;4913582;29;20749;-87
2023/03/15 04:15:10;;;;;;;19.70;10.07;;;;;;;-0.77;100.00;101318.09;4910651;29;20028;-87
2023/03/15 04:17:36;;;;;;;19.35;9.20;;;;;;;-0.74;100.00;101330.06;4897752;29;20439;-87
2023/03/15 04:20:05;;;;;;;19.30;10.35;;;;;;;-0.78;100.00;101326.97;4913953;29;20641;-87
2023/03/15 04:22:33;;;;;;;19.58;10.05;;;;;;;-0.81;100.00;101339.63;4913810;29;20063;-88
2023/03/15 04:25:00;;;;;;;19.93;10.33;;;;;;;-0.88;100.00;101333.41;4896456;29;20020;-88
2023/03/15 04:27:26;;;;;;;19.40;9.82;;;;;;;-0.97;100.00;101320.28;5053584;23;20115;-88
2023/03/15 04:29:53;;;;;;;20.65;10.38;;;;;;;-1.08;100.00;101316.19;4929371;29;20044;-88
2023/03/15 04:32:28;;;;;;;23.67;10.80;;;;;;;-1.14;100.00;101314.25;4907842;29;20091;-87
2023/03/15 04:34:56;;;;;;;22.60;10.38;;;;;;;-1.16;100.00;101312.75;4932917;29;20036;-87
2023/03/15 04:37:21;;;;;;;19.95;9.30;;;;;;;-1.12;100.00;101330.69;4925642;29;20100;-87
2023/03/15 04:39:47;;;;;;;19.53;9.43;;;;;;;-1.10;100.00;101344.50;4913370;29;20036;-87
2023/03/15 04:42:27;;;;;;;20.03;9.73;;;;;;;-1.09;100.00;101351.38;4910945;29;20505;-88
2023/03/15 04:45:03;;;;;;;18.88;9.93;;;;;;;-1.23;100.00;101328.38;4913629;29;20066;-87
2023/03/15 04:47:28;;;;;;;19.77;10.13;;;;;;;-1.12;100.00;101358.78;4933894;23;20559;-87
2023/03/15 04:49:55;;;;;;;20.63;9.97;;;;;;;-1.14;100.00;101358.97;4927063;29;20032;-87
2023/03/15 04:52:20;;;;;;;17.13;9.23;;;;;;;-1.15;100.00;101362.59;4922037;29;20559;-86
2023/03/15 04:54:46;;;;;;;17.00;9.13;;;;;;;-1.18;100.00;101360.28;4921838;29;20024;-86
2023/03/15 04:57:12;;;;;;;24.58;10.32;;;;;;;-1.20;100.00;101362.25;4921716;29;20028;-86
2023/03/15 04:59:38;;;;;;;20.73;10.13;;;;;;;-1.12;100.00;101367.50;4894502;29;20091;-86
2023/03/15 05:02:04;;;;;;;21.70;9.60;;;;;;;-1.14;100.00;101364.22;4913721;29;20046;-86
2023/03/15 05:04:29;;;;;;;22.20;10.03;;;;;;;-1.12;100.00;101372.78;4913692;29;20032;-86
2023/03/15 05:06:54;;;;;;;20.37;9.83;;;;;;;-1.14;100.00;101382.63;4913282;29;20032;-86
2023/03/15 05:09:20;;;;;;;21.00;9.60;;;;;;;-1.18;100.00;101391.00;4911914;29;20040;-86
2023/03/15 05:11:46;;;;;;;23.67;9.80;;;;;;;-1.20;100.00;101385.91;4883108;29;20157;-86
2023/03/15 05:14:12;;;;;;;17.93;8.50;;;;;;;-1.16;100.00;101396.91;4908304;29;20092;-87
2023/03/15 05:16:37;;;;;;;20.13;8.90;;;;;;;-1.19;100.00;101395.44;4895636;29;20077;-89
2023/03/15 05:19:03;;;;;;;21.57;9.43;;;;;;;-1.18;100.00;101396.25;4894957;29;20071;-89
2023/03/15 05:21:28;;;;;;;19.03;9.43;;;;;;;-1.28;100.00;101394.63;4895375;29;20477;-89
2023/03/15 05:23:53;;;;;;;17.17;7.82;;;;;;;-1.29;100.00;101400.06;4897032;29;20033;-87
2023/03/15 05:26:19;;;;;;;19.97;8.93;;;;;;;-1.35;100.00;101395.47;4913178;29;20039;-87
2023/03/15 05:28:44;;;;;;;17.10;8.40;;;;;;;-1.46;100.00;101402.69;4911485;29;20046;-86
2023/03/15 05:31:10;;;;;;;20.93;8.70;;;;;;;-1.53;100.00;101402.50;4914528;29;20071;-88
2023/03/15 05:33:35;;;;;;;21.35;8.52;;;;;;;-1.56;100.00;101409.91;4913145;29;20459;-87
2023/03/15 05:36:01;;;;;;;21.33;9.23;;;;;;;-1.55;100.00;101409.75;4884902;29;20084;-86
2023/03/15 05:38:26;;;;;;;18.30;8.57;;;;;;;-1.52;100.00;101406.78;4901889;29;20056;-86
2023/03/15 05:40:52;;;;;;;17.90;8.60;;;;;;;-1.47;100.00;101422.09;4906415;29;20032;-86
2023/03/15 05:43:17;;;;;;;20.10;8.75;;;;;;;-1.46;100.00;101412.38;4915683;29;20115;-85
2023/03/15 05:45:47;;;;;;;20.87;8.87;;;;;;;-1.51;100.00;101412.88;4914201;29;20126;-87
2023/03/15 05:48:13;;;;;;;18.23;8.70;;;;;;;-1.57;100.00;101424.03;4898432;29;20028;-87
2023/03/15 05:50:38;;;;;;;21.25;8.73;;;;;;;-1.64;100.00;101423.06;4917108;29;20561;-87
2023/03/15 05:53:03;;;;;;;19.33;8.90;;;;;;;-1.77;100.00;101415.63;4915724;29;20072;-88
2023/03/15 05:55:29;;;;;;;18.67;9.00;;;;;;;-1.79;100.00;101423.66;4914662;29;20409;-88
2023/03/15 05:57:54;;;;;;;21.87;9.47;;;;;;;-1.71;100.00;101426.31;4915621;29;20024;-87
2023/03/15 06:00:19;;;;;;;19.30;9.07;;;;;;;-1.71;100.00;101431.56;4914545;29;20480;-87
2023/03/15 06:02:45;;;;;;;20.23;9.10;;;;;;;-1.72;100.00;101440.44;4915948;29;20024;-87
2023/03/15 06:05:12;;;;;;;21.25;9.63;;;;;;;-1.65;100.00;101443.25;4913352;29;20048;-87
2023/03/15 06:07:37;;;;;;;21.13;8.87;;;;;;;-1.64;100.00;101446.72;4916192;29;20143;-87
2023/03/15 06:10:04;;;;;;;23.30;9.93;;;;;;;-1.64;100.00;101457.22;4898692;29;20126;-87
2023/03/15 06:12:29;;;;;;;21.60;9.23;;;;;;;-1.64;100.00;101465.13;4915782;29;20032;-88
2023/03/15 06:14:55;;;;;;;21.07;10.13;;;;;;;-1.60;100.00;101462.00;4899005;29;20291;-87
2023/03/15 06:17:20;;;;;;;21.10;9.93;;;;;;;-1.62;100.00;101463.13;4910479;29;20060;-87
2023/03/15 06:19:45;;;;;;;19.80;9.57;;;;;;;-1.57;100.00;101473.97;4916277;29;20024;-88
2023/03/15 06:22:11;;;;;;;21.03;9.10;;;;;;;-1.57;100.00;101472.19;4915635;29;20070;-87
2023/03/15 06:24:36;;;;;;;21.55;9.32;;;;;;;-1.57;100.00;101480.06;4916532;29;20232;-87
2023/03/15 06:27:01;;;;;;;20.10;9.57;;;;;;;-1.56;100.00;101480.88;4917628;29;20032;-88
2023/03/15 06:29:27;;;;;;;22.03;10.33;;;;;;;-1.55;100.00;101482.53;4915315;29;20080;-88
2023/03/15 06:31:52;;;;;;;22.47;10.50;;;;;;;-1.52;100.00;101482.22;4917325;29;20513;-87
2023/03/15 06:34:19;;;;;;;23.10;10.52;;;;;;;-1.46;100.00;101497.31;4921578;29;20388;-87
2023/03/15 06:36:45;;;;;;;27.10;10.63;;;;;;;-1.40;100.00;101499.31;4914280;29;20024;-88
2023/03/15 06:39:13;;;;;;;27.10;10.40;;;;;;;-1.24;100.00;101510.84;4914635;29;20121;-89
2023/03/15 06:41:40;;;;;;;23.33;10.73;;;;;;;-1.05;100.00;101519.41;4915579;29;20083;-87
2023/03/15 06:44:06;;;;;;;27.17;11.00;;;;;;;-0.92;100.00;101510.03;4916327;29;20531;-90
2023/03/15 06:46:32;;;;;;;27.77;11.87;;;;;;;-0.82;100.00;101515.16;4914339;29;20292;-90
2023/03/15 06:48:57;;;;;;;34.45;12.02;;;;;;;-0.59;100.00;101527.63;4904109;29;20396;-90
2023/03/15 06:51:23;;;;;;;32.30;12.83;;;;;;;-0.46;100.00;101537.66;4897481;29;20037;-88
2023/03/15 06:53:48;;;;;;;33.20;12.43;;;;;;;-0.31;100.00;101537.78;4911771;29;20035;-88
2023/03/15 06:56:13;;;;;;;35.27;12.53;;;;;;;-0.14;100.00;101548.28;4914444;29;20547;-88
2023/03/15 06:58:39;;;;;;;29.50;11.82;;;;;;;0.00;100.00;101542.34;4916892;29;20020;-87
2023/03/15 07:01:04;;;;;;;35.13;12.27;;;;;;;0.06;100.00;101528.47;4919600;29;20039;-87
2023/03/15 07:03:29;;;;;;;30.87;12.43;;;;;;;0.09;100.00;101538.66;4909081;29;20048;-86
2023/03/15 07:05:55;;;;;;;32.23;12.50;;;;;;;0.08;100.00;101550.19;4903002;29;20083;-88
2023/03/15 07:08:22;;;;;;;31.08;11.75;;;;;;;-0.04;100.00;101555.00;4907279;29;20029;-88
2023/03/15 07:10:49;;;;;;;29.83;11.57;;;;;;;-0.17;100.00;101552.09;4922599;29;20123;-87
2023/03/15 07:13:15;;;;;;;26.50;10.70;;;;;;;-0.23;100.00;101571.19;4929289;29;20031;-88
2023/03/15 07:15:42;;;;;;;28.05;11.43;;;;;;;-0.36;100.00;101558.53;4918646;29;20090;-87
2023/03/15 07:18:07;;;;;;;34.28;11.68;;;;;;;-0.30;100.00;101568.41;4915232;29;20032;-86
2023/03/15 07:20:33;;;;;;;32.73;12.60;;;;;;;-0.13;100.00;101577.13;4912585;29;20164;-86
2023/03/15 07:22:58;;;;;;;28.87;11.80;;;;;;;0.12;100.00;101585.78;4915631;29;20119;-86
2023/03/15 07:25:24;;;;;;;33.78;13.32;;;;;;;0.40;100.00;101593.25;4915441;29;20502;-89
2023/03/15 07:27:51;;;;;;;35.10;13.23;;;;;;;0.57;100.00;101593.16;4941865;23;20056;-84
2023/03/15 07:30:20;;;;;;;36.87;14.27;;;;;;;0.77;100.00;101598.00;4920823;29;20335;-85
2023/03/15 07:32:45;;;;;;;37.33;13.80;;;;;;;0.87;100.00;101604.72;4927138;29;20024;-91
2023/03/15 07:35:12;;;;;;;43.15;13.98;;;;;;;0.97;100.00;101601.06;4928392;29;20080;-90
2023/03/15 07:37:37;;;;;;;36.70;13.93;;;;;;;1.08;100.00;101616.47;4908280;29;20056;-88
2023/03/15 07:40:08;;;;;;;38.03;13.67;;;;;;;1.10;100.00;101613.66;4887921;29;20029;-89
2023/03/15 07:42:37;;;;;;;35.03;13.75;;;;;;;1.04;100.00;101616.00;4870843;29;20031;-89
2023/03/15 07:45:10;;;;;;;34.40;12.93;;;;;;;1.00;100.00;101624.47;4891877;29;20032;-89
2023/03/15 07:47:40;;;;;;;30.20;12.45;;;;;;;0.81;100.00;101607.25;5213488;23;20043;-89
2023/03/15 07:50:09;;;;;;;28.95;12.13;;;;;;;0.63;100.00;101595.13;4925032;29;20511;-89
2023/03/15 07:52:34;;;;;;;28.30;12.50;;;;;;;0.59;100.00;101614.91;4921339;29;20260;-85
2023/03/15 07:58:06;;;;;;;25.65;11.65;;;;;;;0.55;100.00;101630.28;5006707;23;20061;-89
2023/03/15 08:00:31;;;;;;;27.13;11.87;;;;;;;0.48;100.00;101626.66;5298851;23;20127;-90
2023/03/15 08:03:04;;;;;;;26.40;11.95;;;;;;;0.42;100.00;101637.91;4937406;28;20032;-88
2023/03/15 08:08:12;;;;;;;31.63;12.18;;;;;;;0.42;100.00;101643.19;5668126;23;20054;-88
2023/03/15 08:30:29;;;;;;;29.07;10.87;;;;;;;0.80;100.00;101703.22;5075757;23;20091;-85
2023/03/15 08:32:55;;;;;;;28.03;10.53;;;;;;;0.87;100.00;101691.00;4929351;29;20311;-85
2023/03/15 08:35:21;;;;;;;20.30;9.63;;;;;;;0.98;100.00;101701.16;4922377;29;20031;-85
2023/03/15 08:37:47;;;;;;;31.15;10.35;;;;;;;1.02;100.00;101699.00;5752968;23;20080;-85
2023/03/15 08:40:17;;;;;;;24.53;9.57;;;;;;;1.09;100.00;101697.31;4913743;29;20071;-85
2023/03/15 08:42:44;;;;;;;20.50;8.88;;;;;;;1.16;100.00;101705.38;4913638;29;20536;-84
2023/03/15 08:45:10;;;;;;;18.15;8.63;;;;;;;1.20;100.00;101704.84;4914447;29;20155;-84
2023/03/15 08:48:22;;;;;;;22.05;8.18;;;;;;;1.28;100.00;101711.88;5087610;23;20045;-85
2023/03/15 08:51:18;;;;;;;15.10;6.72;;;;;;;1.21;100.00;101692.47;4913010;29;20040;-85
2023/03/15 08:53:44;;;;;;;15.73;7.40;;;;;;;1.40;100.00;101714.16;4913947;29;20068;-84
2023/03/15 08:56:10;;;;;;;14.13;6.40;;;;;;;1.49;100.00;101721.00;4912536;29;20720;-87
2023/03/15 08:58:35;;;;;;;12.80;4.65;;;;;;;1.48;100.00;101722.84;4905183;29;20589;-87
2023/03/15 09:01:01;;;;;;;12.83;4.10;;;;;;;1.47;100.00;101723.00;4909663;29;20099;-85
2023/03/15 09:03:26;;;;;;;14.47;3.93;;;;;;;1.46;100.00;101729.31;4914416;29;20115;-86
2023/03/15 09:05:56;;;;;;;7.70;3.90;;;;;;;1.48;100.00;101727.28;4915039;29;20039;-85
2023/03/15 09:08:24;;;;;;;13.73;3.90;;;;;;;1.46;100.00;101724.03;4901214;29;20115;-87
2023/03/15 09:10:53;;;;;;;7.70;3.30;;;;;;;1.47;100.00;101728.28;4915175;29;20072;-87
2023/03/15 09:13:18;;;;;;;8.40;3.35;;;;;;;1.46;100.00;101735.41;4916038;29;20039;-85
2023/03/15 09:15:43;;;;;;;11.20;4.03;;;;;;;1.44;100.00;101728.66;4914093;29;20028;-86
2023/03/15 09:18:08;;;;;;;9.00;3.37;;;;;;;1.43;100.00;101733.09;4913193;29;20114;-87
2023/03/15 09:23:55;;;;;;;10.30;2.90;;;;;;;1.46;100.00;101713.47;4914139;29;20115;-86
2023/03/15 09:29:42;;;;;;;14.18;4.05;;;;;;;1.60;100.00;101714.50;4902913;29;20069;-86
2023/03/15 09:32:10;;;;;;;10.57;4.00;;;;;;;1.74;100.00;101734.88;5530313;23;20047;-85
2023/03/15 09:34:36;;;;;;;9.57;3.63;;;;;;;1.86;100.00;101732.63;4929581;29;20512;-85
2023/03/15 09:37:02;;;;;;;11.73;4.17;;;;;;;2.00;100.00;101735.53;4917262;29;20371;-85
2023/03/15 09:39:27;;;;;;;13.88;4.05;;;;;;;2.08;100.00;101743.38;4903896;29;20481;-85
2023/03/15 09:41:57;;;;;;;8.63;3.77;;;;;;;2.17;100.00;101738.84;4905258;29;20033;-87
2023/03/15 09:44:32;;;;;;;13.88;3.38;;;;;;;2.18;100.00;101743.97;4888486;29;20063;-87
2023/03/15 09:47:15;;;;;;;12.45;3.10;;;;;;;2.20;100.00;101744.56;4930201;23;20047;-86
2023/03/15 09:49:46;;;;;;;11.75;3.65;;;;;;;2.25;100.00;101744.06;4924466;29;20036;-86
2023/03/15 09:52:38;;;;;;;9.60;3.30;;;;;;;2.31;100.00;101748.63;4917441;29;20096;-86
2023/03/15 09:55:15;;;;;;;15.93;3.20;;;;;;;2.30;100.00;101749.63;4916760;29;20302;-85
2023/03/15 09:57:49;;;;;;;9.57;3.33;;;;;;;2.30;100.00;101748.81;4916457;29;20043;-87
2023/03/15 10:00:19;;;;;;;8.85;2.53;;;;;;;2.23;100.00;101744.22;4912429;29;20032;-85
2023/03/15 10:03:01;;;;;;;7.03;2.80;;;;;;;2.18;100.00;101754.53;4914530;29;20032;-86
2023/03/15 10:05:46;;;;;;;7.80;1.95;;;;;;;2.10;100.00;101754.59;4916103;29;20522;-86
2023/03/15 10:08:14;;;;;;;11.65;2.20;;;;;;;2.01;100.00;101753.84;4890620;29;20028;-86
2023/03/15 10:11:10;;;;;;;8.32;2.15;;;;;;;2.00;100.00;101754.03;4899997;29;20399;-86
2023/03/15 10:13:54;;;;;;;7.37;2.17;;;;;;;2.04;100.00;101752.66;4915216;29;20659;-85
2023/03/15 10:16:24;;;;;;;7.80;2.33;;;;;;;2.08;100.00;101748.66;4916651;29;20063;-89
2023/03/15 10:19:14;;;;;;;3.58;2.15;;;;;;;2.09;100.00;101750.31;4913161;29;20165;-85
2023/03/15 10:21:54;;;;;;;9.70;2.38;;;;;;;2.15;100.00;101752.25;4914695;29;20036;-87
2023/03/15 10:24:30;;;;;;;9.23;2.22;;;;;;;2.24;100.00;101759.09;4900149;29;20452;-89
2023/03/15 10:26:58;;;;;;;12.23;2.70;;;;;;;2.35;100.00;101762.31;4915949;29;20945;-88
2023/03/15 10:29:26;;;;;;;7.00;2.10;;;;;;;2.44;100.00;101758.59;4912310;29;20095;-86
2023/03/15 10:31:53;;;;;;;8.27;1.20;;;;;;;2.49;100.00;101766.81;4916199;29;20288;-85
2023/03/15 10:34:18;;;;;;;34.30;2.10;;;;;;;2.50;100.00;101757.03;4915239;29;20035;-88
2023/03/15 10:36:53;;;;;;;21.73;2.03;;;;;;;2.43;100.00;101754.28;4913122;29;20028;-85
2023/03/15 10:39:18;;;;;;;4.63;1.20;;;;;;;2.39;100.00;101759.13;4884131;29;20301;-84
2023/03/15 10:41:46;;;;;;;29.83;2.28;;;;;;;2.38;100.00;101759.28;4910272;29;20032;-84
2023/03/15 10:44:27;;;;;;;9.90;1.50;;;;;;;2.38;100.00;101769.88;4916037;29;20441;-83
2023/03/15 11:05:08;;;;;;;4.85;1.02;;;;;;;2.46;100.00;101804.22;5258874;23;20452;-84
2023/03/15 11:07:34;;;;;;;7.32;1.10;;;;;;;2.47;100.00;101802.38;4917938;29;20040;-85
2023/03/15 11:10:02;;;;;;;8.60;1.40;;;;;;;2.47;100.00;101807.66;4914162;29;20088;-87
2023/03/15 11:12:33;;;;;;;9.87;1.13;;;;;;;2.43;100.00;101804.56;4907229;29;20308;-85
2023/03/15 11:15:25;;;;;;;9.48;1.08;;;;;;;2.38;100.00;101807.75;4900569;29;20036;-85
2023/03/15 11:17:51;;;;;;;9.00;1.30;;;;;;;2.33;100.00;101810.09;4907374;29;20059;-85
2023/03/15 11:20:32;;;;;;;7.18;1.13;;;;;;;2.32;100.00;101812.94;4905383;29;20152;-85
2023/03/15 11:22:59;;;;;;;8.00;1.30;;;;;;;2.28;100.00;101820.41;4908171;29;20047;-85
2023/03/15 11:25:32;;;;;;;7.78;1.00;;;;;;;2.17;100.00;101816.38;4911365;29;20056;-85
2023/03/15 11:27:58;;;;;;;7.47;1.10;;;;;;;2.17;100.00;101821.66;4896687;29;20046;-85
2023/03/15 11:30:30;;;;;;;5.05;0.98;;;;;;;2.12;100.00;101822.16;4908875;29;20046;-84
2023/03/15 11:33:14;;;;;;;6.78;1.48;;;;;;;2.14;100.00;101827.28;4912770;29;20063;-86
2023/03/15 11:35:47;;;;;;;5.32;1.20;;;;;;;2.28;100.00;101815.13;4910280;29;20032;-86
2023/03/15 11:38:34;;;;;;;7.68;1.10;;;;;;;2.53;100.00;101815.72;4911882;29;20052;-86
2023/03/15 11:41:03;;;;;;;5.22;1.15;;;;;;;2.78;100.00;101814.66;4913433;29;20036;-86
2023/03/15 11:43:48;;;;;;;7.37;1.03;;;;;;;2.97;100.00;101818.59;4913269;29;20068;-85
2023/03/15 11:46:54;;;;;;;3.40;0.80;;;;;;;3.23;100.00;101810.16;4917179;23;20579;-85
2023/03/15 11:49:35;;;;;;;3.15;0.90;;;;;;;3.52;100.00;101802.34;4879303;29;20157;-87
2023/03/15 11:52:01;;;;;;;7.40;1.00;;;;;;;3.70;100.00;101812.56;4917271;29;20032;-85
2023/03/15 11:54:31;;;;;;;6.80;1.13;;;;;;;4.09;100.00;101800.72;4908924;29;20028;-85
2023/03/15 11:57:29;;;;;;;4.35;1.10;;;;;;;4.56;100.00;101809.06;4896623;29;20031;-85
2023/03/15 11:59:56;;;;;;;6.10;1.00;;;;;;;5.12;94.87;101799.34;4904897;29;20044;-85
2023/03/15 12:02:25;;;;;;;4.68;0.88;;;;;;;5.20;93.79;101799.19;4913533;29;20549;-85
2023/03/15 12:04:54;;;;;;;2.80;0.80;;;;;;;5.23;95.92;101790.81;4914062;29;20111;-86
2023/03/15 12:07:23;;;;;;;2.40;1.10;;;;;;;5.36;86.64;101789.22;4914119;29;20179;-90
2023/03/15 12:09:54;;;;;;;3.80;0.83;;;;;;;5.39;93.95;101781.66;4901916;29;20024;-85
2023/03/15 12:12:34;;;;;;;2.30;0.60;;;;;;;5.49;91.39;101799.91;4912699;29;20392;-86
2023/03/15 12:15:17;;;;;;;2.45;0.80;;;;;;;5.61;97.29;101792.16;4909436;29;20024;-86
2023/03/15 12:17:44;;;;;;;2.47;0.70;;;;;;;5.72;93.87;101785.44;4903369;29;21825;-87
2023/03/15 12:20:20;;;;;;;3.97;0.70;;;;;;;5.77;82.09;101780.34;4910523;29;20032;-87